Time;durP1;ratioP1;P1;durP2;ratioP2;P2;SDS_P1;SDS_P2;PMS_P1;PMS_P2;Temp;Humidity;BMP_temperature;BMP_pressure;BME280_temperature;BME280_humidity;BME280_pressure;Samples;Min_cycle;Max_cycle;Signal;HPM_P1;HPM_P2
2021/06/19 00:00:41;;;;;;;;;3.00;3.00;;;;;30.85;53.01;98796.75;5033594;28;8855;-70
2021/06/19 00:03:10;;;;;;;;;3.20;3.20;;;;;30.85;53.00;98805.69;5033293;28;8862;-71
2021/06/19 00:05:38;;;;;;;;;3.80;3.80;;;;;30.81;52.25;98789.38;5033197;28;8921;-71
2021/06/19 00:08:09;;;;;;;;;4.00;4.00;;;;;30.82;52.32;98792.88;5033517;28;8827;-71
2021/06/19 00:10:37;;;;;;;;;4.00;4.00;;;;;30.83;52.01;98794.44;5033643;28;8932;-71
2021/06/19 00:13:06;;;;;;;;;2.80;2.80;;;;;30.79;52.45;98788.25;5033637;28;9657;-70
2021/06/19 00:15:36;;;;;;;;;3.60;3.60;;;;;30.70;52.40;98780.53;5033348;28;8878;-70
2021/06/19 00:18:04;;;;;;;;;3.20;3.00;;;;;30.77;52.15;98794.09;5033255;28;8912;-70
2021/06/19 00:20:33;;;;;;;;;4.00;4.00;;;;;30.70;51.38;98787.91;5031599;28;8870;-70
2021/06/19 00:23:01;;;;;;;;;3.80;3.80;;;;;30.75;51.25;98798.38;5032963;28;8896;-71
2021/06/19 00:25:30;;;;;;;;;2.20;2.20;;;;;30.74;52.20;98791.38;5048105;28;8846;-70
2021/06/19 00:27:58;;;;;;;;;3.00;3.00;;;;;30.64;52.07;98784.84;5032854;28;8826;-71
2021/06/19 00:30:27;;;;;;;;;3.00;3.00;;;;;30.64;51.46;98793.00;5032716;28;8843;-71
2021/06/19 00:32:55;;;;;;;;;3.00;3.00;;;;;30.72;51.21;98810.84;5032755;28;9568;-70
2021/06/19 00:35:24;;;;;;;;;2.40;2.40;;;;;30.57;51.18;98784.84;5032634;28;8835;-70
2021/06/19 00:37:52;;;;;;;;;2.40;2.40;;;;;30.71;51.76;98794.91;5032654;28;8953;-71
2021/06/19 00:40:21;;;;;;;;;3.00;3.00;;;;;30.74;52.06;98791.38;5032548;28;8838;-70
2021/06/19 00:43:01;;;;;;;;;3.00;3.00;;;;;30.70;51.78;98793.34;5033633;28;8831;-71
2021/06/19 00:45:37;;;;;;;;;2.80;2.80;;;;;30.72;51.40;98794.50;5032511;28;8889;-74
2021/06/19 00:48:10;;;;;;;;;4.00;4.00;;;;;30.72;53.54;98794.50;5032644;28;8847;-74
2021/06/19 00:50:41;;;;;;;;;1.80;1.80;;;;;30.77;51.89;98794.09;5031653;28;8851;-73
2021/06/19 00:53:10;;;;;;;;;2.80;2.80;;;;;30.80;51.09;98804.19;5032459;28;8896;-75
2021/06/19 00:55:39;;;;;;;;;3.20;3.20;;;;;30.77;50.79;98794.09;5032648;28;8906;-74
2021/06/19 00:58:08;;;;;;;;;4.60;4.60;;;;;30.90;51.97;98813.44;5032712;28;8905;-74
2021/06/19 01:00:37;;;;;;;;;3.00;3.00;;;;;30.97;51.26;98812.63;5031949;28;8850;-73
2021/06/19 01:03:06;;;;;;;;;2.00;2.00;;;;;31.00;51.14;98815.31;5032469;28;8839;-73
2021/06/19 01:05:34;;;;;;;;;3.00;3.00;;;;;30.94;50.67;98800.56;5033005;28;8838;-73
2021/06/19 01:08:03;;;;;;;;;2.40;2.40;;;;;31.03;50.84;98811.00;5034879;28;8866;-71
2021/06/19 01:10:31;;;;;;;;;5.00;5.00;;;;;31.01;51.15;98800.50;5032078;28;8834;-74
2021/06/19 01:13:00;;;;;;;;;3.00;3.00;;;;;31.00;50.83;98812.59;5032057;28;8842;-75
2021/06/19 01:15:29;;;;;;;;;3.00;3.00;;;;;30.70;52.73;98777.78;5031664;28;8940;-74
2021/06/19 01:17:57;;;;;;;;;4.00;4.00;;;;;30.81;50.87;98792.09;5032112;28;8842;-75
2021/06/19 01:20:26;;;;;;;;;2.80;2.80;;;;;31.00;51.55;98823.47;5031410;28;8947;-73
2021/06/19 01:22:56;;;;;;;;;3.00;3.00;;;;;30.95;50.68;98813.00;5031760;28;8843;-73
2021/06/19 01:25:27;;;;;;;;;2.20;2.20;;;;;31.08;50.63;98830.44;5032063;28;8920;-75
2021/06/19 01:27:56;;;;;;;;;1.80;1.80;;;;;31.06;51.46;98816.44;5032000;28;8847;-74
2021/06/19 01:30:27;;;;;;;;;3.80;3.80;;;;;31.10;50.89;98816.41;5031974;28;8865;-73
2021/06/19 01:32:56;;;;;;;;;1.80;1.80;;;;;31.14;50.48;98811.72;5030823;28;8831;-75
2021/06/19 01:35:25;;;;;;;;;2.50;2.00;;;;;31.11;50.61;98810.53;5031709;28;8961;-74
2021/06/19 01:37:56;;;;;;;;;2.00;2.00;;;;;31.10;50.76;98822.63;5030749;28;8879;-75
2021/06/19 01:40:30;;;;;;;;;2.60;2.60;;;;;31.13;50.92;98816.41;5031557;28;8839;-74
2021/06/19 01:43:00;;;;;;;;;2.75;2.75;;;;;31.18;50.39;98822.59;5031310;28;8849;-71
2021/06/19 01:45:33;;;;;;;;;4.00;4.00;;;;;31.18;50.67;98817.91;5031533;28;8870;-71
2021/06/19 01:48:06;;;;;;;;;1.80;1.80;;;;;31.25;50.83;98827.94;5031587;28;8846;-74
2021/06/19 01:50:36;;;;;;;;;3.00;3.00;;;;;31.28;50.67;98825.19;5032873;28;8865;-74
2021/06/19 01:53:05;;;;;;;;;3.00;3.00;;;;;31.34;50.50;98820.84;5034147;28;8851;-76
2021/06/19 01:55:34;;;;;;;;;2.00;2.00;;;;;31.37;50.27;98824.72;5034951;28;8862;-75
2021/06/19 01:58:03;;;;;;;;;1.40;1.40;;;;;31.38;50.14;98826.28;5034695;28;8874;-75
2021/06/19 02:00:37;;;;;;;;;1.00;1.00;;;;;31.44;49.78;98825.44;5034752;28;9568;-77
2021/06/19 02:03:09;;;;;;;;;2.80;2.80;;;;;31.46;49.97;98817.63;5034419;28;8858;-76
2021/06/19 02:05:38;;;;;;;;;2.00;2.00;;;;;31.60;49.95;98813.97;5040444;28;8889;-76
2021/06/19 02:08:10;;;;;;;;;1.40;1.40;;;;;31.61;48.50;98807.34;5035367;28;8851;-76
2021/06/19 02:10:41;;;;;;;;;2.00;2.00;;;;;31.65;49.24;98802.63;5034955;28;8994;-73
2021/06/19 02:13:10;;;;;;;;;1.20;1.20;;;;;31.66;48.81;98797.94;5034246;28;8858;-72
2021/06/19 02:15:42;;;;;;;;;1.00;1.00;;;;;31.83;48.97;98818.81;5034669;28;8846;-71
2021/06/19 02:18:12;;;;;;;;;1.20;1.20;;;;;31.87;48.42;98816.06;5034343;28;8961;-72
2021/06/19 02:20:41;;;;;;;;;0.00;0.00;;;;;31.86;48.48;98795.41;5034422;28;8940;-71
2021/06/19 02:23:09;;;;;;;;;1.00;1.00;;;;;31.98;47.83;98806.56;5034136;28;8920;-71
2021/06/19 02:25:41;;;;;;;;;0.00;0.00;;;;;31.98;47.94;98803.84;5029675;28;8904;-71
2021/06/19 02:28:11;;;;;;;;;0.00;0.00;;;;;32.05;48.25;98809.22;5014501;28;9614;-71
2021/06/19 02:30:43;;;;;;;;;1.00;1.00;;;;;32.03;48.04;98791.69;5014248;28;8876;-72
2021/06/19 02:33:14;;;;;;;;;0.00;0.00;;;;;32.14;48.52;98805.22;5014821;28;8834;-72
2021/06/19 02:35:45;;;;;;;;;1.40;1.40;;;;;32.16;48.17;98802.84;5014387;28;8873;-72
2021/06/19 02:38:14;;;;;;;;;0.80;0.80;;;;;32.11;47.23;98804.06;5014126;28;8872;-73
2021/06/19 02:40:44;;;;;;;;;1.00;1.00;;;;;32.18;47.64;98800.47;5016691;28;8881;-72
2021/06/19 02:43:13;;;;;;;;;1.20;1.20;;;;;32.10;47.48;98788.88;5014357;28;8926;-74
2021/06/19 02:45:42;;;;;;;;;1.40;1.40;;;;;32.21;47.82;98800.44;5008489;28;8854;-74
2021/06/19 02:48:11;;;;;;;;;0.80;0.80;;;;;32.21;47.69;98791.47;5017813;28;8915;-71
2021/06/19 02:50:42;;;;;;;;;0.60;0.60;;;;;32.19;47.68;98780.19;5021593;28;8915;-74
2021/06/19 02:53:12;;;;;;;;;1.00;1.00;;;;;32.26;47.48;98775.44;5012762;28;8819;-73
2021/06/19 02:55:43;;;;;;;;;1.00;1.00;;;;;32.08;47.32;98747.59;5013772;28;8956;-72
2021/06/19 02:58:16;;;;;;;;;1.00;1.00;;;;;32.07;47.39;98743.31;5014387;28;8944;-75
2021/06/19 03:00:44;;;;;;;;;1.80;1.80;;;;;32.32;47.59;98773.78;5015112;28;8880;-73
2021/06/19 03:03:13;;;;;;;;;0.60;0.60;;;;;32.37;47.06;98778.78;5013363;28;8845;-72
2021/06/19 03:05:42;;;;;;;;;1.40;1.40;;;;;32.42;46.76;98783.78;5029456;28;8857;-72
2021/06/19 03:08:10;;;;;;;;;1.00;1.00;;;;;32.47;46.77;98788.00;5013643;28;8891;-72
2021/06/19 03:10:40;;;;;;;;;1.00;1.00;;;;;32.51;46.42;98777.00;5013376;28;8869;-73
2021/06/19 03:13:09;;;;;;;;;1.80;1.80;;;;;32.49;46.86;98758.34;5017769;28;8837;-74
2021/06/19 03:15:38;;;;;;;;;1.00;1.00;;;;;32.56;46.57;98766.41;5019479;28;8834;-72
2021/06/19 03:18:07;;;;;;;;;1.00;1.00;;;;;32.68;46.97;98781.44;5017255;28;8830;-74
2021/06/19 03:20:37;;;;;;;;;2.80;2.80;;;;;32.60;46.31;98758.91;5018429;28;8854;-76
2021/06/19 03:23:06;;;;;;;;;1.60;1.60;;;;;32.67;46.41;98753.34;5018357;28;8842;-73
2021/06/19 03:25:40;;;;;;;;;1.00;1.00;;;;;32.84;45.83;98770.66;5018697;28;8856;-72
2021/06/19 03:28:11;;;;;;;;;0.60;0.60;;;;;32.92;45.44;98788.50;5018698;28;8826;-72
2021/06/19 03:30:44;;;;;;;;;0.00;0.00;;;;;32.99;46.21;98780.19;5019264;28;8861;-72
2021/06/19 03:33:15;;;;;;;;;0.00;0.00;;;;;33.07;46.43;98778.09;5017663;28;8833;-71
2021/06/19 03:35:45;;;;;;;;;0.60;0.60;;;;;33.04;46.19;98766.03;5018488;28;8854;-71
2021/06/19 03:38:18;;;;;;;;;0.80;0.80;;;;;33.06;45.86;98751.94;5018013;28;8993;-71
2021/06/19 03:40:46;;;;;;;;;1.00;1.00;;;;;33.21;45.66;98772.38;5013747;28;8834;-71
2021/06/19 03:43:15;;;;;;;;;0.60;0.60;;;;;33.19;44.95;98766.56;5012238;28;8955;-71
2021/06/19 03:45:44;;;;;;;;;1.00;1.00;;;;;33.07;46.31;98746.06;5011343;28;8845;-71
2021/06/19 03:48:13;;;;;;;;;2.00;2.00;;;;;33.24;46.01;98752.41;5011496;28;8943;-71
2021/06/19 03:50:41;;;;;;;;;1.40;1.40;;;;;33.30;45.33;98750.00;5010271;28;8826;-72
2021/06/19 03:53:10;;;;;;;;;1.00;1.00;;;;;33.42;45.76;98763.03;5015724;28;8839;-72
2021/06/19 03:55:38;;;;;;;;;1.00;1.00;;;;;33.47;45.19;98759.81;5013070;28;8838;-72
2021/06/19 03:58:07;;;;;;;;;0.40;0.40;;;;;33.37;45.71;98739.69;5018157;28;8843;-71
2021/06/19 04:00:36;;;;;;;;;1.00;1.00;;;;;33.59;45.32;98759.19;5013090;28;8868;-73
2021/06/19 04:03:04;;;;;;;;;1.20;1.20;;;;;33.54;44.57;98724.13;5012595;28;8861;-74
2021/06/19 04:05:33;;;;;;;;;0.80;0.80;;;;;33.69;45.00;98730.84;5012592;28;8842;-73
2021/06/19 04:08:02;;;;;;;;;0.00;0.00;;;;;33.73;45.09;98728.06;5008941;28;8911;-74
2021/06/19 04:10:30;;;;;;;;;0.80;0.80;;;;;33.71;45.18;98720.25;5009482;28;8915;-69
2021/06/19 04:12:59;;;;;;;;;1.80;1.80;;;;;33.73;44.55;98714.38;5011865;28;8853;-76
2021/06/19 04:15:28;;;;;;;;;1.00;1.00;;;;;33.79;44.28;98723.63;5026200;28;9023;-75
2021/06/19 04:17:57;;;;;;;;;0.20;0.20;;;;;33.78;43.83;98699.41;5011011;28;8830;-73
2021/06/19 04:20:26;;;;;;;;;0.00;0.00;;;;;33.95;44.79;98720.16;5006793;28;8846;-76
2021/06/19 04:22:54;;;;;;;;;1.40;1.40;;;;;34.03;44.90;98724.28;5009683;28;8857;-77
2021/06/19 04:25:23;;;;;;;;;1.00;1.00;;;;;34.11;44.68;98711.22;5012395;28;8821;-76
2021/06/19 04:27:54;;;;;;;;;0.20;0.20;;;;;34.00;43.08;98686.81;5019184;28;8833;-76
2021/06/19 04:30:28;;;;;;;;;1.00;1.00;;;;;34.10;44.19;98704.97;5010173;28;8822;-77
2021/06/19 04:32:57;;;;;;;;;0.80;0.80;;;;;34.01;43.83;98671.94;5011263;28;8859;-76
2021/06/19 04:35:27;;;;;;;;;1.00;1.00;;;;;34.23;43.87;98708.56;5008740;28;8868;-74
2021/06/19 04:37:55;;;;;;;;;0.80;0.80;;;;;34.20;43.01;98695.75;5028460;28;8849;-74
2021/06/19 04:43:07;;;;;;;;;0.00;0.00;;;;;34.25;43.25;98691.72;5010037;28;8883;-75
2021/06/19 04:45:37;;;;;;;;;0.00;0.00;;;;;34.24;43.16;98684.72;5011557;28;8838;-73
2021/06/19 04:48:07;;;;;;;;;1.00;1.00;;;;;34.34;42.53;98676.28;5011734;28;9555;-74
2021/06/19 04:50:38;;;;;;;;;0.80;0.80;;;;;34.26;42.68;98663.16;5011475;28;8838;-76
2021/06/19 04:53:07;;;;;;;;;0.00;0.00;;;;;34.57;43.34;98689.00;5014138;28;8884;-74
2021/06/19 04:55:38;;;;;;;;;0.80;0.80;;;;;34.67;42.21;98673.50;5010306;28;8899;-75
2021/06/19 04:58:09;;;;;;;;;1.00;1.00;;;;;34.70;43.42;98669.91;5010901;28;8865;-77
2021/06/19 05:00:39;;;;;;;;;1.00;1.00;;;;;34.84;42.01;98672.31;5007401;28;8838;-74
2021/06/19 05:03:07;;;;;;;;;1.00;1.00;;;;;34.90;42.42;98662.34;5011607;28;8857;-74
2021/06/19 05:05:36;;;;;;;;;1.00;1.00;;;;;34.95;42.44;98664.56;5011812;28;9640;-77
2021/06/19 05:08:06;;;;;;;;;1.00;1.00;;;;;35.01;42.62;98664.03;5011786;28;8868;-78
2021/06/19 05:10:35;;;;;;;;;1.20;1.20;;;;;35.05;42.66;98659.25;5011178;28;8958;-78
2021/06/19 05:13:03;;;;;;;;;0.80;0.80;;;;;35.12;42.37;98656.28;5011972;28;8888;-77
2021/06/19 05:15:32;;;;;;;;;0.00;0.00;;;;;35.15;43.15;98641.69;5012283;28;8814;-77
2021/06/19 05:18:01;;;;;;;;;1.00;1.00;;;;;35.20;42.12;98649.38;5011740;28;9678;-76
2021/06/19 05:20:31;;;;;;;;;0.80;0.80;;;;;35.22;42.12;98641.50;5025382;28;8916;-76
2021/06/19 05:23:07;;;;;;;;;0.60;0.60;;;;;35.29;41.37;98639.31;5027728;28;8843;-76
2021/06/19 05:25:37;;;;;;;;;1.00;1.00;;;;;35.36;41.88;98632.13;5022964;28;8989;-76
2021/06/19 05:28:06;;;;;;;;;1.40;1.40;;;;;35.42;41.92;98631.16;5021565;28;8855;-75
2021/06/19 05:30:36;;;;;;;;;1.20;1.20;;;;;35.47;40.59;98616.13;5023748;28;8855;-75
2021/06/19 05:33:06;;;;;;;;;1.60;1.60;;;;;35.57;40.53;98618.53;5024144;28;8879;-77
2021/06/19 05:35:36;;;;;;;;;0.00;0.00;;;;;35.64;41.18;98615.59;5026485;28;8871;-77
2021/06/19 05:38:05;;;;;;;;;1.00;1.00;;;;;35.71;40.59;98613.84;5021348;28;8924;-77
2021/06/19 05:40:34;;;;;;;;;1.00;1.00;;;;;35.78;40.03;98613.63;5012104;28;8857;-77
2021/06/19 05:43:02;;;;;;;;;1.00;1.00;;;;;35.80;39.28;98601.03;5013129;28;8888;-75
2021/06/19 05:45:31;;;;;;;;;1.00;1.00;;;;;35.87;40.61;98597.28;5013254;28;8854;-77
2021/06/19 05:48:00;;;;;;;;;2.40;2.40;;;;;36.00;41.17;98603.53;5017026;28;8840;-77
2021/06/19 05:50:29;;;;;;;;;1.60;1.60;;;;;36.03;40.20;98590.91;5013517;28;8915;-77
2021/06/19 05:52:58;;;;;;;;;1.20;1.20;;;;;36.08;41.71;98587.59;5016472;28;8823;-76
2021/06/19 05:55:26;;;;;;;;;0.20;0.20;;;;;36.08;41.12;98590.34;5024065;28;8845;-75
2021/06/19 05:57:55;;;;;;;;;0.60;0.60;;;;;36.05;41.00;98582.97;5024048;28;8897;-77
2021/06/19 06:00:24;;;;;;;;;1.00;1.00;;;;;35.93;40.33;98568.84;5026725;28;8847;-76
2021/06/19 06:02:54;;;;;;;;;0.40;0.40;;;;;36.15;39.37;98590.09;5029020;28;8859;-78
2021/06/19 06:05:23;;;;;;;;;1.20;1.20;;;;;36.15;39.75;98563.41;5013223;28;8853;-77
2021/06/19 06:07:52;;;;;;;;;0.00;0.00;;;;;36.38;40.81;98572.50;5030496;28;8913;-77
2021/06/19 06:10:22;;;;;;;;;1.00;1.00;;;;;36.41;40.73;98555.09;5029707;28;9599;-77
2021/06/19 06:12:53;;;;;;;;;0.00;0.00;;;;;36.50;40.36;98569.69;5023529;28;8945;-76
2021/06/19 06:15:22;;;;;;;;;0.00;0.00;;;;;36.51;38.44;98564.94;5029408;28;8831;-78
2021/06/19 06:17:51;;;;;;;;;0.00;0.00;;;;;36.52;39.94;98559.00;5023735;28;8837;-78
2021/06/19 06:20:19;;;;;;;;;0.00;0.00;;;;;36.55;39.79;98565.59;5010022;28;8853;-78
2021/06/19 06:22:51;;;;;;;;;0.00;0.00;;;;;36.54;39.31;98555.81;5009097;28;8931;-76
2021/06/19 06:25:19;;;;;;;;;1.00;1.00;;;;;36.49;39.53;98539.91;5005398;28;8852;-76
2021/06/19 06:27:48;;;;;;;;;0.40;0.40;;;;;36.56;39.29;98545.91;5006583;28;8845;-76
2021/06/19 06:30:17;;;;;;;;;0.20;0.20;;;;;36.69;38.70;98553.34;5011426;28;8850;-77
2021/06/19 06:32:46;;;;;;;;;0.00;0.00;;;;;36.76;39.63;98553.09;5011995;28;8939;-77
2021/06/19 06:35:15;;;;;;;;;1.60;1.60;;;;;36.76;37.67;98542.09;5011177;28;8842;-78
2021/06/19 06:37:44;;;;;;;;;0.00;0.00;;;;;36.78;38.97;98539.69;5012461;28;8850;-75
2021/06/19 06:40:14;;;;;;;;;0.00;0.00;;;;;36.77;39.14;98529.91;5011696;28;8845;-76
2021/06/19 06:42:43;;;;;;;;;0.00;0.00;;;;;36.78;39.14;98520.44;5010169;28;8868;-75
2021/06/19 06:45:14;;;;;;;;;0.00;0.00;;;;;36.81;38.55;98527.78;5014935;28;8966;-75
2021/06/19 06:47:50;;;;;;;;;0.00;0.00;;;;;36.79;38.74;98527.47;5009125;28;8856;-76
2021/06/19 06:50:20;;;;;;;;;0.00;0.00;;;;;36.80;38.60;98523.50;5007988;28;8871;-75
2021/06/19 06:52:49;;;;;;;;;1.00;1.00;;;;;36.85;37.79;98517.44;5005488;28;8844;-74
2021/06/19 06:55:18;;;;;;;;;0.80;0.80;;;;;36.85;37.56;98511.94;5002884;28;8841;-75
2021/06/19 06:57:48;;;;;;;;;0.20;0.20;;;;;36.99;37.71;98519.66;5002678;28;8869;-76
2021/06/19 07:00:17;;;;;;;;;0.00;0.00;;;;;37.10;38.46;98509.00;5016476;28;8866;-75
2021/06/19 07:02:47;;;;;;;;;0.00;0.00;;;;;37.24;38.40;98507.72;5031566;28;8841;-77
2021/06/19 07:05:15;;;;;;;;;0.40;0.40;;;;;37.16;38.46;98481.69;5027880;28;8922;-75
2021/06/19 07:07:45;;;;;;;;;1.00;1.00;;;;;37.31;37.75;98490.94;5012787;28;8838;-75
2021/06/19 07:10:15;;;;;;;;;0.60;0.60;;;;;37.48;36.73;98497.72;5013159;28;8889;-75
2021/06/19 07:12:45;;;;;;;;;0.00;0.00;;;;;37.47;37.07;98485.19;5010829;28;8854;-74
2021/06/19 07:15:16;;;;;;;;;0.20;0.20;;;;;37.66;36.72;98491.50;5016383;28;8861;-74
2021/06/19 07:17:50;;;;;;;;;0.00;0.00;;;;;37.70;37.50;98486.66;5023809;28;8866;-74
2021/06/19 07:20:20;;;;;;;;;0.20;0.20;;;;;37.79;37.60;98483.88;5024327;28;8843;-75
2021/06/19 07:22:49;;;;;;;;;1.00;1.00;;;;;37.81;37.80;98484.19;5025177;28;8896;-75
2021/06/19 07:25:18;;;;;;;;;0.00;0.00;;;;;37.79;37.21;98472.09;5024994;28;8846;-75
2021/06/19 07:27:53;;;;;;;;;0.20;0.20;;;;;37.78;37.75;98459.56;5023963;28;8850;-75
2021/06/19 07:30:23;;;;;;;;;0.60;0.60;;;;;37.73;37.65;98449.91;5025057;28;8916;-75
2021/06/19 07:32:55;;;;;;;;;0.80;0.80;;;;;37.69;37.23;98451.31;5021946;28;8919;-76
2021/06/19 07:35:24;;;;;;;;;0.20;0.20;;;;;37.57;36.26;98463.19;5016502;28;8857;-75
2021/06/19 07:37:53;;;;;;;;;0.20;0.20;;;;;37.42;36.78;98455.53;5017606;28;8853;-77
2021/06/19 07:40:22;;;;;;;;;0.40;0.40;;;;;37.37;37.13;98441.59;5021442;28;8819;-79
2021/06/19 07:42:50;;;;;;;;;0.00;0.00;;;;;37.27;37.61;98415.28;5018346;28;8895;-77
2021/06/19 07:45:19;;;;;;;;;0.60;0.60;;;;;37.53;36.90;98444.09;5020854;28;8823;-75
2021/06/19 07:47:49;;;;;;;;;0.00;0.00;;;;;37.61;37.12;98441.78;5036120;28;8928;-77
2021/06/19 07:50:18;;;;;;;;;0.00;0.00;;;;;37.52;38.06;98424.06;5020653;28;9601;-76
2021/06/19 07:52:47;;;;;;;;;0.80;0.80;;;;;37.70;36.86;98428.84;5018134;28;8884;-78
2021/06/19 07:55:16;;;;;;;;;1.00;1.00;;;;;37.73;37.39;98416.88;5020615;28;8875;-80
2021/06/19 07:57:44;;;;;;;;;1.40;1.40;;;;;37.81;36.74;98423.63;5015800;28;8849;-78
2021/06/19 08:00:14;;;;;;;;;1.00;1.00;;;;;37.91;36.75;98426.38;5017777;28;8903;-77
2021/06/19 08:02:44;;;;;;;;;0.00;0.00;;;;;37.95;37.46;98415.97;5016557;28;8839;-77
2021/06/19 08:05:13;;;;;;;;;0.20;0.20;;;;;38.05;37.85;98406.50;5018246;28;9641;-76
2021/06/19 08:07:42;;;;;;;;;0.40;0.40;;;;;38.05;37.77;98409.25;5013479;28;8833;-78
2021/06/19 08:10:11;;;;;;;;;0.60;0.60;;;;;37.97;37.79;98408.78;5008876;28;8865;-77
2021/06/19 08:12:41;;;;;;;;;0.60;0.60;;;;;38.00;37.32;98401.59;5011606;28;8857;-81
2021/06/19 08:15:11;;;;;;;;;0.60;0.60;;;;;38.05;36.55;98399.00;5011572;28;8929;-73
2021/06/19 08:17:40;;;;;;;;;1.20;1.20;;;;;38.00;36.98;98394.09;5011660;28;8853;-74
2021/06/19 08:20:09;;;;;;;;;0.00;0.00;;;;;38.07;36.45;98376.50;5008874;28;8912;-73
2021/06/19 08:22:38;;;;;;;;;0.60;0.60;;;;;38.09;36.27;98374.81;5009158;28;8934;-78
2021/06/19 08:25:07;;;;;;;;;0.60;0.60;;;;;38.12;37.02;98370.38;5011067;28;8849;-74
2021/06/19 08:27:36;;;;;;;;;0.00;0.00;;;;;38.25;37.30;98375.72;5011268;28;8893;-75
2021/06/19 08:30:06;;;;;;;;;1.80;1.80;;;;;38.29;36.75;98368.84;5015116;28;8833;-75
2021/06/19 08:32:38;;;;;;;;;1.20;1.20;;;;;38.38;36.01;98384.59;5009995;28;8861;-74
2021/06/19 08:35:08;;;;;;;;;1.00;1.00;;;;;38.42;36.81;98385.94;5026638;28;8849;-75
2021/06/19 08:37:37;;;;;;;;;0.60;0.60;;;;;38.36;36.60;98389.78;5013826;28;8968;-75
2021/06/19 08:40:07;;;;;;;;;1.00;1.00;;;;;38.14;36.25;98351.41;5016663;28;8889;-80
2021/06/19 08:42:36;;;;;;;;;1.40;1.40;;;;;38.38;36.63;98387.34;5027910;28;9630;-77
2021/06/19 08:45:06;;;;;;;;;1.00;1.00;;;;;38.40;36.33;98393.16;5014296;28;8853;-74
2021/06/19 08:47:36;;;;;;;;;3.60;3.60;;;;;38.36;37.52;98370.50;5022288;28;8947;-72
2021/06/19 08:50:11;;;;;;;;;1.00;1.00;;;;;38.39;37.77;98373.09;5010066;28;8903;-76
2021/06/19 08:52:42;;;;;;;;;0.80;0.80;;;;;38.41;36.76;98367.13;5008030;28;9542;-74
2021/06/19 08:55:17;;;;;;;;;1.00;1.00;;;;;38.37;37.29;98372.03;5010898;28;8931;-75
2021/06/19 08:57:47;;;;;;;;;0.60;0.60;;;;;38.34;36.55;98359.19;5011705;28;8834;-76
2021/06/19 09:00:17;;;;;;;;;0.60;0.60;;;;;38.33;35.75;98360.41;5010639;28;8849;-71
2021/06/19 09:02:48;;;;;;;;;1.00;1.00;;;;;38.38;34.87;98362.53;5011422;28;8995;-72
2021/06/19 09:05:24;;;;;;;;;0.60;0.60;;;;;38.37;36.35;98361.78;5008880;28;8865;-77
2021/06/19 09:07:56;;;;;;;;;0.00;0.00;;;;;38.49;36.35;98357.31;5011194;28;8837;-78
2021/06/19 09:10:34;;;;;;;;;0.00;0.00;;;;;38.54;35.92;98347.63;5010740;28;8825;-74
2021/06/19 09:13:09;;;;;;;;;1.00;1.00;;;;;38.36;34.43;98316.16;5007249;28;8845;-75
2021/06/19 09:15:50;;;;;;;;;0.20;0.20;;;;;38.60;35.51;98340.28;5009590;28;8857;-73
2021/06/19 09:18:24;;;;;;;;;1.00;1.00;;;;;38.62;35.36;98343.34;5006724;28;8932;-73
2021/06/19 09:21:03;;;;;;;;;2.20;2.20;;;;;38.64;36.37;98343.66;5011767;28;8846;-73
2021/06/19 09:23:44;;;;;;;;;1.80;1.80;;;;;38.63;36.77;98342.13;5019983;28;8862;-72
2021/06/19 09:26:19;;;;;;;;;1.00;1.00;;;;;38.57;36.88;98333.69;5012376;28;8883;-73
2021/06/19 09:28:56;;;;;;;;;1.00;1.00;;;;;38.51;36.51;98333.56;5010568;28;8857;-72
2021/06/19 09:31:41;;;;;;;;;0.40;0.40;;;;;38.47;35.85;98316.44;5004467;28;8837;-72
2021/06/19 09:34:28;;;;;;;;;0.80;0.80;;;;;38.40;36.65;98308.50;5011050;28;8857;-74
2021/06/19 09:37:04;;;;;;;;;1.00;1.00;;;;;38.39;36.08;98311.72;5010963;28;8845;-73
2021/06/19 09:39:36;;;;;;;;;0.40;0.40;;;;;38.38;34.93;98304.66;5011298;28;8865;-73
2021/06/19 09:42:07;;;;;;;;;2.00;2.00;;;;;38.41;34.86;98309.25;5010787;28;8848;-76
2021/06/19 09:44:46;;;;;;;;;1.20;1.20;;;;;38.35;34.79;98289.06;5006019;28;9598;-74
2021/06/19 09:47:18;;;;;;;;;0.00;0.00;;;;;38.45;34.91;98307.84;5008738;28;8846;-74
2021/06/19 09:49:49;;;;;;;;;1.00;1.00;;;;;38.40;33.67;98294.72;5009234;28;8853;-80
2021/06/19 09:52:29;;;;;;;;;0.80;0.80;;;;;38.44;34.99;98306.34;5011034;28;8930;-74
2021/06/19 09:54:59;;;;;;;;;0.40;0.40;;;;;38.46;34.97;98303.13;5006874;28;8943;-74
2021/06/19 09:57:41;;;;;;;;;1.60;1.60;;;;;38.45;34.83;98307.84;5011353;28;8923;-72
2021/06/19 10:00:15;;;;;;;;;0.80;0.80;;;;;38.41;36.03;98304.50;5026114;28;8915;-74
2021/06/19 10:02:45;;;;;;;;;1.20;1.20;;;;;38.42;35.67;98299.75;5025923;28;8837;-74
2021/06/19 10:05:14;;;;;;;;;0.00;0.00;;;;;38.39;35.45;98308.97;5011574;28;8911;-73
2021/06/19 10:07:46;;;;;;;;;2.00;2.00;;;;;38.33;34.69;98310.81;5011839;28;8927;-74
2021/06/19 10:10:15;;;;;;;;;1.60;1.60;;;;;38.19;34.59;98301.22;5011764;28;8842;-75
2021/06/19 10:12:44;;;;;;;;;1.00;1.00;;;;;38.09;35.06;98303.19;5014963;28;8845;-74
2021/06/19 10:15:14;;;;;;;;;0.80;0.80;;;;;38.04;34.81;98292.03;5015624;28;8856;-74
2021/06/19 10:17:45;;;;;;;;;1.40;1.00;;;;;38.00;34.71;98297.72;5018749;28;8849;-74
2021/06/19 10:20:16;;;;;;;;;1.00;1.00;;;;;37.88;35.41;98287.63;5024145;28;8822;-74
2021/06/19 10:22:46;;;;;;;;;1.00;1.00;;;;;37.93;34.98;98292.53;5015871;28;8985;-74
2021/06/19 10:25:21;;;;;;;;;1.00;1.00;;;;;37.91;35.46;98294.22;5015538;28;8845;-74
2021/06/19 10:27:50;;;;;;;;;1.60;1.60;;;;;37.88;36.50;98279.38;5015536;28;8841;-74
2021/06/19 10:30:24;;;;;;;;;0.00;0.00;;;;;37.83;36.19;98288.25;5030513;28;8834;-74
2021/06/19 10:33:32;;;;;;;;;1.00;1.00;;;;;37.74;34.75;98289.03;5015375;28;8912;-74
2021/06/19 10:36:03;;;;;;;;;1.00;1.00;;;;;37.60;33.89;98275.13;5015292;28;8849;-74
2021/06/19 10:38:55;;;;;;;;;1.00;1.00;;;;;37.67;35.26;98291.34;5015476;28;8857;-74
2021/06/19 10:41:46;;;;;;;;;0.40;0.40;;;;;37.70;35.93;98296.72;5015197;28;8845;-74
2021/06/19 10:44:47;;;;;;;;;1.00;1.00;;;;;37.67;35.61;98300.38;5015194;28;8853;-74
2021/06/19 10:47:24;;;;;;;;;1.00;1.00;;;;;37.55;35.76;98296.53;5015124;28;8872;-74
2021/06/19 10:49:53;;;;;;;;;0.80;0.80;;;;;37.55;35.25;98299.28;5015341;28;8861;-74
2021/06/19 10:52:38;;;;;;;;;0.00;0.00;;;;;37.52;35.84;98300.22;5015009;28;8834;-74
2021/06/19 10:55:10;;;;;;;;;0.00;0.00;;;;;37.47;35.45;98300.81;5014961;28;8850;-74
2021/06/19 10:57:51;;;;;;;;;1.60;1.60;;;;;37.47;36.64;98302.81;5014802;28;8834;-74
2021/06/19 11:00:40;;;;;;;;;0.40;0.40;;;;;37.46;35.46;98299.31;5014768;28;8841;-74
2021/06/19 11:03:08;;;;;;;;;1.00;1.00;;;;;37.42;36.21;98312.44;5014754;28;8849;-74
2021/06/19 11:05:57;;;;;;;;;2.40;2.40;;;;;37.43;35.69;98316.72;5014782;28;9641;-74
2021/06/19 11:08:27;;;;;;;;;0.00;0.00;;;;;37.37;36.61;98318.56;5014734;28;8939;-74
2021/06/19 11:10:57;;;;;;;;;2.00;2.00;;;;;37.32;35.63;98315.66;5015867;28;8853;-75
2021/06/19 11:13:28;;;;;;;;;1.00;1.00;;;;;37.26;35.89;98309.22;5027314;28;8841;-74
2021/06/19 11:16:20;;;;;;;;;2.00;2.00;;;;;37.23;35.55;98317.16;5014674;28;8931;-74
2021/06/19 11:18:50;;;;;;;;;2.40;2.40;;;;;37.20;36.12;98326.31;5014357;28;8884;-74
2021/06/19 11:21:28;;;;;;;;;1.00;1.00;;;;;37.14;35.68;98325.38;5014323;28;8890;-73
2021/06/19 11:24:16;;;;;;;;;1.40;1.40;;;;;37.06;35.78;98328.88;5013409;28;8837;-74
2021/06/19 11:29:41;;;;;;;;;1.60;1.60;;;;;36.89;36.08;98323.63;5014336;28;8955;-74
2021/06/19 11:32:34;;;;;;;;;2.00;2.00;;;;;36.83;37.06;98328.19;5014204;28;8841;-74
2021/06/19 11:35:21;;;;;;;;;1.20;1.20;;;;;36.73;36.59;98323.88;5014157;28;8853;-74
2021/06/19 11:38:08;;;;;;;;;2.60;2.60;;;;;36.68;36.61;98318.19;5013987;28;8845;-74
2021/06/19 11:40:38;;;;;;;;;2.60;2.60;;;;;36.62;37.24;98322.75;5014857;28;8915;-73
2021/06/19 11:43:08;;;;;;;;;3.80;3.80;;;;;36.53;36.85;98329.72;5013940;28;8837;-74
2021/06/19 11:45:39;;;;;;;;;3.20;3.20;;;;;36.46;36.73;98335.50;5013989;28;8861;-74
2021/06/19 11:48:18;;;;;;;;;2.40;2.40;;;;;36.36;37.31;98324.94;5013893;28;8861;-74
2021/06/19 11:50:47;;;;;;;;;5.60;5.60;;;;;36.24;37.73;98315.56;5013879;28;8853;-74
2021/06/19 11:53:37;;;;;;;;;3.80;3.80;;;;;36.30;37.78;98337.75;5014052;28;9660;-73
2021/06/19 11:56:07;;;;;;;;;5.80;5.80;;;;;36.25;37.37;98347.28;5013818;28;8967;-74
2021/06/19 11:58:54;;;;;;;;;3.60;3.60;;;;;36.20;37.86;98339.63;5013736;28;8849;-73
2021/06/19 12:01:34;;;;;;;;;4.00;4.00;;;;;36.05;38.00;98333.13;5013697;28;8849;-74
2021/06/19 12:04:13;;;;;;;;;3.00;3.00;;;;;36.07;37.83;98341.69;5018114;28;8849;-74
2021/06/19 12:06:43;;;;;;;;;4.60;4.60;;;;;35.94;37.68;98344.50;5021550;28;8907;-74